< < Back
Terminal Aerodrome Forecast


Current Version              Previous Versions:   1  2  3  4  5  6  7  8  9  

Terminal Aerodrome Forecast

703
FTUS44 KMRX 301127
TAFCHA
TAF
KCHA 301127Z 3012/3112 VRB04KT 3SM -DZ BR SCT005 OVC015
     FM301400 35006KT P6SM BKN010
     FM301600 34009KT P6SM SKC
     FM310000 VRB03KT P6SM SCT250=



Latest METAR

589
SAUS80 KWBC 310300 RRA
MTRCHA
METAR KCHA 310253Z 20003KT 10SM CLR 12/03 A3013 RMK AO2 SLP199 T01170033
50009


USA.gov is the U.S. government's official web portal to all federal, state and local government web resources and services.